Map

Track Data

SID SEASON NUMBER BASIN SUBBASIN NAME ISO_TIME NATURE LAT LON WMO_WIND WMO_PRES WMO_AGENCY TRACK_TYPE DIST2LAND LANDFALL IFLAG USA_AGENCY USA_ATCF_ID USA_LAT USA_LON USA_RECORD USA_STATUS USA_WIND USA_PRES USA_SSHS USA_R34_NE USA_R34_SE USA_R34_SW USA_R34_NW USA_R50_NE USA_R50_SE USA_R50_SW USA_R50_NW USA_R64_NE USA_R64_SE USA_R64_SW USA_R64_NW USA_POCI USA_ROCI USA_RMW USA_EYE TOKYO_LAT TOKYO_LON TOKYO_GRADE TOKYO_WIND TOKYO_PRES TOKYO_R50_DIR TOKYO_R50_LONG TOKYO_R50_SHORT TOKYO_R30_DIR TOKYO_R30_LONG TOKYO_R30_SHORT TOKYO_LAND CMA_LAT CMA_LON CMA_CAT CMA_WIND CMA_PRES HKO_LAT HKO_LON HKO_CAT HKO_WIND HKO_PRES NEWDELHI_LAT NEWDELHI_LON NEWDELHI_GRADE NEWDELHI_WIND NEWDELHI_PRES NEWDELHI_CI NEWDELHI_DP NEWDELHI_POCI REUNION_LAT REUNION_LON REUNION_TYPE REUNION_WIND REUNION_PRES REUNION_TNUM REUNION_CI REUNION_RMW REUNION_R34_NE REUNION_R34_SE REUNION_R34_SW REUNION_R34_NW REUNION_R50_NE REUNION_R50_SE REUNION_R50_SW REUNION_R50_NW REUNION_R64_NE REUNION_R64_SE REUNION_R64_SW REUNION_R64_NW BOM_LAT BOM_LON BOM_TYPE BOM_WIND BOM_PRES BOM_TNUM BOM_CI BOM_RMW BOM_R34_NE BOM_R34_SE BOM_R34_SW BOM_R34_NW BOM_R50_NE BOM_R50_SE BOM_R50_SW BOM_R50_NW BOM_R64_NE BOM_R64_SE BOM_R64_SW BOM_R64_NW BOM_ROCI BOM_POCI BOM_EYE BOM_POS_METHOD BOM_PRES_METHOD NADI_LAT NADI_LON NADI_CAT NADI_WIND NADI_PRES WELLINGTON_LAT WELLINGTON_LON WELLINGTON_WIND WELLINGTON_PRES DS824_LAT DS824_LON DS824_STAGE DS824_WIND DS824_PRES TD9636_LAT TD9636_LON TD9636_STAGE TD9636_WIND TD9636_PRES TD9635_LAT TD9635_LON TD9635_WIND TD9635_PRES TD9635_ROCI NEUMANN_LAT NEUMANN_LON NEUMANN_CLASS NEUMANN_WIND NEUMANN_PRES MLC_LAT MLC_LON MLC_CLASS MLC_WIND MLC_PRES USA_GUST BOM_GUST BOM_GUST_PER REUNION_GUST REUNION_GUST_PER USA_SEAHGT USA_SEARAD_NE USA_SEARAD_SE USA_SEARAD_SW USA_SEARAD_NW STORM_SPEED STORM_DIR
1918080S12062 1918 24 SI MM NOT_NAMED 1918-03-20 18:00:00 NR -11.7000 62.1000 main 1051 1046 __________O___ -1 -11.7000 62.1000 7 1 242
1918080S12062 1918 24 SI MM NOT_NAMED 1918-03-20 21:00:00 NR -11.7326 62.0421 main 1046 1036 __________P___ -1 -11.7326 62.0421 7 2 242
1918080S12062 1918 24 SI MM NOT_NAMED 1918-03-21 00:00:00 NR -11.7723 61.9574 main 1036 1027 __________P___ -1 -11.7723 61.9574 7 2 247
1918080S12062 1918 24 SI MM NOT_NAMED 1918-03-21 03:00:00 NR -11.8258 61.8190 main 1027 1007 __________P___ -1 -11.8258 61.8190 7 4 250
1918080S12062 1918 24 SI MM NOT_NAMED 1918-03-21 06:00:00 NR -11.9000 61.6000 main 1007 984 __________O___ -1 -11.9000 61.6000 7 6 252
1918080S12062 1918 24 SI MM NOT_NAMED 1918-03-21 09:00:00 NR -11.9996 61.2832 main 984 958 __________P___ -1 -11.9996 61.2832 7 7 252
1918080S12062 1918 24 SI MM NOT_NAMED 1918-03-21 12:00:00 NR -12.1202 60.8900 main 958 933 __________P___ -1 -12.1202 60.8900 7 9 253
1918080S12062 1918 24 SI MM NOT_NAMED 1918-03-21 15:00:00 NR -12.2558 60.4519 main 922 896 __________P___ -1 -12.2558 60.4519 7 9 252
1918080S12062 1918 24 SI MM NOT_NAMED 1918-03-21 18:00:00 NR -12.4000 60.0000 main 896 874 __________O___ -1 -12.4000 60.0000 7 9 251
1918080S12062 1918 24 SI MM NOT_NAMED 1918-03-21 21:00:00 NR -12.5549 59.5782 main 863 843 __________P___ -1 -12.5549 59.5782 7 9 249
1918080S12062 1918 24 SI MM NOT_NAMED 1918-03-22 00:00:00 NR -12.7149 59.1502 main 843 812 __________P___ -1 -12.7149 59.1502 7 9 249
1918080S12062 1918 24 SI MM NOT_NAMED 1918-03-22 03:00:00 NR -12.8674 58.7220 main 812 797 __________P___ -1 -12.8674 58.7220 7 9 251
1918080S12062 1918 24 SI MM NOT_NAMED 1918-03-22 06:00:00 NR -13.0000 58.3000 main 797 783 __________O___ -1 -13.0000 58.3000 7 8 254
1918080S12062 1918 24 SI MM NOT_NAMED 1918-03-22 09:00:00 NR -13.1004 57.8926 main 783 772 __________P___ -1 -13.1004 57.8926 7 8 257
1918080S12062 1918 24 SI MM NOT_NAMED 1918-03-22 12:00:00 NR -13.1797 57.4923 main 772 746 __________P___ -1 -13.1797 57.4923 7 8 260
1918080S12062 1918 24 SI MM NOT_NAMED 1918-03-22 15:00:00 NR -13.2441 57.0958 main 746 701 __________P___ -1 -13.2441 57.0958 7 8 261
1918080S12062 1918 24 SI MM NOT_NAMED 1918-03-22 18:00:00 NR -13.3000 56.7000 main 701 660 __________O___ -1 -13.3000 56.7000 7 8 262
1918080S12062 1918 24 SI MM NOT_NAMED 1918-03-22 21:00:00 NR -13.3525 56.3023 main 656 615 __________P___ -1 -13.3525 56.3023 7 8 262
1918080S12062 1918 24 SI MM NOT_NAMED 1918-03-23 00:00:00 NR -13.4030 55.9027 main 615 575 __________P___ -1 -13.4030 55.9027 7 8 263
1918080S12062 1918 24 SI MM NOT_NAMED 1918-03-23 03:00:00 NR -13.4521 55.5017 main 571 531 __________P___ -1 -13.4521 55.5017 7 8 263
1918080S12062 1918 24 SI MM NOT_NAMED 1918-03-23 06:00:00 NR -13.5000 55.1000 main 531 __________O___ -1 -13.5000 55.1000 7 8 263

About IBTrACS Database

This database is a web-friendly format of International Best Track Archive for Climate Stewardship (IBTrACS), a global best track data archive curated by NOAA dating back to 1842.

Updated: 2021-10-19